sensor_id;sensor_type;location;lat;lon;timestamp;temperature;humidity
69393;SHT31;56582;44.624;20.378;2022-09-03T00:02:18;20.67;74.48
69393;SHT31;56582;44.624;20.378;2022-09-03T00:04:54;20.75;74.48
69393;SHT31;56582;44.624;20.378;2022-09-03T00:07:43;20.73;74.47
69393;SHT31;56582;44.624;20.378;2022-09-03T00:10:17;20.92;73.88
69393;SHT31;56582;44.624;20.378;2022-09-03T00:12:46;20.90;74.05
69393;SHT31;56582;44.624;20.378;2022-09-03T00:15:19;20.95;74.12
69393;SHT31;56582;44.624;20.378;2022-09-03T00:18:15;20.93;73.91
69393;SHT31;56582;44.624;20.378;2022-09-03T00:23:07;20.86;73.82
69393;SHT31;56582;44.624;20.378;2022-09-03T00:25:49;20.89;74.74
69393;SHT31;56582;44.624;20.378;2022-09-03T00:28:23;20.88;74.35
69393;SHT31;56582;44.624;20.378;2022-09-03T00:30:55;20.93;74.25
69393;SHT31;56582;44.624;20.378;2022-09-03T00:33:29;20.93;73.99
69393;SHT31;56582;44.624;20.378;2022-09-03T00:36:12;20.83;74.14
69393;SHT31;56582;44.624;20.378;2022-09-03T00:38:38;20.88;74.17
69393;SHT31;56582;44.624;20.378;2022-09-03T00:46:48;20.76;74.25
69393;SHT31;56582;44.624;20.378;2022-09-03T00:55:32;21.55;70.67
69393;SHT31;56582;44.624;20.378;2022-09-03T00:58:17;21.84;71.85
69393;SHT31;56582;44.624;20.378;2022-09-03T01:00:45;21.98;72.17
69393;SHT31;56582;44.624;20.378;2022-09-03T01:26:59;22.22;69.16
69393;SHT31;56582;44.624;20.378;2022-09-03T01:29:56;22.29;68.94
69393;SHT31;56582;44.624;20.378;2022-09-03T01:38:32;22.26;68.53
69393;SHT31;56582;44.624;20.378;2022-09-03T01:44:02;22.16;68.89
69393;SHT31;56582;44.624;20.378;2022-09-03T01:46:38;22.16;68.72
69393;SHT31;56582;44.624;20.378;2022-09-03T01:51:45;22.28;68.33
69393;SHT31;56582;44.624;20.378;2022-09-03T01:57:48;22.22;68.25
69393;SHT31;56582;44.624;20.378;2022-09-03T02:00:20;22.29;67.88
69393;SHT31;56582;44.624;20.378;2022-09-03T02:02:48;22.30;67.92
69393;SHT31;56582;44.624;20.378;2022-09-03T02:05:26;22.25;67.86
69393;SHT31;56582;44.624;20.378;2022-09-03T02:07:58;22.26;67.89
69393;SHT31;56582;44.624;20.378;2022-09-03T02:10:41;22.23;67.93
69393;SHT31;56582;44.624;20.378;2022-09-03T02:13:26;21.89;68.73
69393;SHT31;56582;44.624;20.378;2022-09-03T02:15:58;21.64;69.43
69393;SHT31;56582;44.624;20.378;2022-09-03T02:18:28;21.60;69.84
69393;SHT31;56582;44.624;20.378;2022-09-03T02:20:56;21.85;69.07
69393;SHT31;56582;44.624;20.378;2022-09-03T02:23:22;21.77;69.51
69393;SHT31;56582;44.624;20.378;2022-09-03T02:25:51;21.61;69.99
69393;SHT31;56582;44.624;20.378;2022-09-03T02:28:19;21.51;70.26
69393;SHT31;56582;44.624;20.378;2022-09-03T02:30:45;21.43;70.44
69393;SHT31;56582;44.624;20.378;2022-09-03T02:33:10;21.30;70.71
69393;SHT31;56582;44.624;20.378;2022-09-03T02:35:36;20.96;72.52
69393;SHT31;56582;44.624;20.378;2022-09-03T02:38:16;20.32;74.20
69393;SHT31;56582;44.624;20.378;2022-09-03T02:40:41;20.00;75.78
69393;SHT31;56582;44.624;20.378;2022-09-03T02:43:12;20.37;74.33
69393;SHT31;56582;44.624;20.378;2022-09-03T02:45:44;20.62;73.35
69393;SHT31;56582;44.624;20.378;2022-09-03T02:48:12;20.75;72.74
69393;SHT31;56582;44.624;20.378;2022-09-03T02:50:41;20.86;72.21
69393;SHT31;56582;44.624;20.378;2022-09-03T02:53:07;20.92;71.84
69393;SHT31;56582;44.624;20.378;2022-09-03T02:55:33;20.89;71.87
69393;SHT31;56582;44.624;20.378;2022-09-03T02:57:59;20.95;72.46
69393;SHT31;56582;44.624;20.378;2022-09-03T03:00:25;21.04;72.99
69393;SHT31;56582;44.624;20.378;2022-09-03T03:02:54;21.09;72.82
69393;SHT31;56582;44.624;20.378;2022-09-03T03:05:25;21.10;72.47
69393;SHT31;56582;44.624;20.378;2022-09-03T03:07:52;21.13;72.66
69393;SHT31;56582;44.624;20.378;2022-09-03T03:10:17;21.47;71.86
69393;SHT31;56582;44.624;20.378;2022-09-03T03:12:43;21.61;71.66
69393;SHT31;56582;44.624;20.378;2022-09-03T03:15:08;21.75;71.16
69393;SHT31;56582;44.624;20.378;2022-09-03T03:17:34;21.74;71.07
69393;SHT31;56582;44.624;20.378;2022-09-03T03:19:59;21.67;71.13
69393;SHT31;56582;44.624;20.378;2022-09-03T03:22:25;21.44;71.24
69393;SHT31;56582;44.624;20.378;2022-09-03T03:24:50;21.34;71.64
69393;SHT31;56582;44.624;20.378;2022-09-03T03:27:16;21.39;71.29
69393;SHT31;56582;44.624;20.378;2022-09-03T03:29:43;21.64;70.52
69393;SHT31;56582;44.624;20.378;2022-09-03T03:32:08;21.88;69.83
69393;SHT31;56582;44.624;20.378;2022-09-03T03:34:34;22.02;69.23
69393;SHT31;56582;44.624;20.378;2022-09-03T03:36:59;22.10;69.01
69393;SHT31;56582;44.624;20.378;2022-09-03T03:39:24;22.20;68.51
69393;SHT31;56582;44.624;20.378;2022-09-03T03:41:50;22.19;68.61
69393;SHT31;56582;44.624;20.378;2022-09-03T03:44:16;22.23;68.21
69393;SHT31;56582;44.624;20.378;2022-09-03T03:46:44;22.28;68.13
69393;SHT31;56582;44.624;20.378;2022-09-03T03:49:11;22.29;68.00
69393;SHT31;56582;44.624;20.378;2022-09-03T03:51:37;22.33;67.68
69393;SHT31;56582;44.624;20.378;2022-09-03T03:54:03;22.26;67.75
69393;SHT31;56582;44.624;20.378;2022-09-03T03:56:29;22.15;68.02
69393;SHT31;56582;44.624;20.378;2022-09-03T03:58:55;22.16;68.04
69393;SHT31;56582;44.624;20.378;2022-09-03T04:01:25;22.08;68.02
69393;SHT31;56582;44.624;20.378;2022-09-03T04:03:53;22.06;68.67
69393;SHT31;56582;44.624;20.378;2022-09-03T04:06:19;22.04;68.70
69393;SHT31;56582;44.624;20.378;2022-09-03T04:08:46;22.09;68.24
69393;SHT31;56582;44.624;20.378;2022-09-03T04:11:16;22.19;67.86
69393;SHT31;56582;44.624;20.378;2022-09-03T04:13:43;22.26;67.63
69393;SHT31;56582;44.624;20.378;2022-09-03T04:16:17;21.91;68.46
69393;SHT31;56582;44.624;20.378;2022-09-03T04:18:43;21.64;69.68
69393;SHT31;56582;44.624;20.378;2022-09-03T04:21:11;21.78;69.26
69393;SHT31;56582;44.624;20.378;2022-09-03T04:23:39;21.94;68.96
69393;SHT31;56582;44.624;20.378;2022-09-03T04:26:05;22.09;68.33
69393;SHT31;56582;44.624;20.378;2022-09-03T04:28:31;22.18;68.14
69393;SHT31;56582;44.624;20.378;2022-09-03T04:31:06;22.23;67.79
69393;SHT31;56582;44.624;20.378;2022-09-03T04:33:33;22.15;68.36
69393;SHT31;56582;44.624;20.378;2022-09-03T04:36:16;21.73;69.12
69393;SHT31;56582;44.624;20.378;2022-09-03T04:38:43;21.55;69.85
69393;SHT31;56582;44.624;20.378;2022-09-03T04:41:11;21.61;69.66
69393;SHT31;56582;44.624;20.378;2022-09-03T04:43:38;21.71;69.32
69393;SHT31;56582;44.624;20.378;2022-09-03T04:46:06;21.85;69.04
69393;SHT31;56582;44.624;20.378;2022-09-03T04:48:33;21.99;69.69
69393;SHT31;56582;44.624;20.378;2022-09-03T04:51:05;22.05;69.76
69393;SHT31;56582;44.624;20.378;2022-09-03T04:53:36;22.04;69.83
69393;SHT31;56582;44.624;20.378;2022-09-03T04:56:02;22.10;70.19
69393;SHT31;56582;44.624;20.378;2022-09-03T04:58:28;21.87;70.43
69393;SHT31;56582;44.624;20.378;2022-09-03T05:00:53;20.98;72.50
69393;SHT31;56582;44.624;20.378;2022-09-03T05:03:19;20.31;75.05
69393;SHT31;56582;44.624;20.378;2022-09-03T05:05:54;19.69;76.95
69393;SHT31;56582;44.624;20.378;2022-09-03T05:08:20;19.42;77.97
69393;SHT31;56582;44.624;20.378;2022-09-03T05:10:46;19.04;79.36
69393;SHT31;56582;44.624;20.378;2022-09-03T05:13:11;18.80;80.46
69393;SHT31;56582;44.624;20.378;2022-09-03T05:15:37;18.49;81.96
69393;SHT31;56582;44.624;20.378;2022-09-03T05:18:03;18.39;82.85
69393;SHT31;56582;44.624;20.378;2022-09-03T05:20:29;18.37;83.13
69393;SHT31;56582;44.624;20.378;2022-09-03T05:22:56;18.33;83.54
69393;SHT31;56582;44.624;20.378;2022-09-03T05:25:22;18.28;84.31
69393;SHT31;56582;44.624;20.378;2022-09-03T05:27:48;18.25;84.75
69393;SHT31;56582;44.624;20.378;2022-09-03T05:30:13;18.16;85.59
69393;SHT31;56582;44.624;20.378;2022-09-03T05:32:39;18.16;85.32
69393;SHT31;56582;44.624;20.378;2022-09-03T05:35:06;18.24;85.11
69393;SHT31;56582;44.624;20.378;2022-09-03T05:37:32;18.26;85.28
69393;SHT31;56582;44.624;20.378;2022-09-03T05:39:57;18.21;85.83
69393;SHT31;56582;44.624;20.378;2022-09-03T05:42:23;18.30;85.84
69393;SHT31;56582;44.624;20.378;2022-09-03T05:44:51;18.28;85.92
69393;SHT31;56582;44.624;20.378;2022-09-03T05:47:16;18.32;85.89
69393;SHT31;56582;44.624;20.378;2022-09-03T05:49:42;18.40;85.92
69393;SHT31;56582;44.624;20.378;2022-09-03T05:52:07;18.40;86.13
69393;SHT31;56582;44.624;20.378;2022-09-03T05:54:34;18.30;86.49
69393;SHT31;56582;44.624;20.378;2022-09-03T05:56:59;18.36;86.62
69393;SHT31;56582;44.624;20.378;2022-09-03T05:59:25;18.49;86.47
69393;SHT31;56582;44.624;20.378;2022-09-03T06:01:50;18.37;86.45
69393;SHT31;56582;44.624;20.378;2022-09-03T06:04:16;18.22;86.87
69393;SHT31;56582;44.624;20.378;2022-09-03T06:06:43;18.30;86.68
69393;SHT31;56582;44.624;20.378;2022-09-03T06:09:14;18.40;86.49
69393;SHT31;56582;44.624;20.378;2022-09-03T06:11:41;18.42;86.57
69393;SHT31;56582;44.624;20.378;2022-09-03T06:14:09;18.36;86.40
69393;SHT31;56582;44.624;20.378;2022-09-03T06:16:43;18.36;84.86
69393;SHT31;56582;44.624;20.378;2022-09-03T06:19:10;18.42;85.64
69393;SHT31;56582;44.624;20.378;2022-09-03T06:21:37;18.47;85.61
69393;SHT31;56582;44.624;20.378;2022-09-03T06:24:05;18.53;85.94
69393;SHT31;56582;44.624;20.378;2022-09-03T06:26:30;18.66;86.03
69393;SHT31;56582;44.624;20.378;2022-09-03T06:28:56;18.63;86.36
69393;SHT31;56582;44.624;20.378;2022-09-03T06:31:22;18.68;86.52
69393;SHT31;56582;44.624;20.378;2022-09-03T06:33:47;18.95;85.92
69393;SHT31;56582;44.624;20.378;2022-09-03T06:36:15;18.95;85.33
69393;SHT31;56582;44.624;20.378;2022-09-03T06:38:42;19.10;84.96
69393;SHT31;56582;44.624;20.378;2022-09-03T06:41:12;19.01;84.17
69393;SHT31;56582;44.624;20.378;2022-09-03T06:43:40;19.26;83.80
69393;SHT31;56582;44.624;20.378;2022-09-03T06:46:15;19.46;82.84
69393;SHT31;56582;44.624;20.378;2022-09-03T06:48:41;19.63;80.76
69393;SHT31;56582;44.624;20.378;2022-09-03T06:51:15;19.79;79.82
69393;SHT31;56582;44.624;20.378;2022-09-03T06:53:42;19.83;78.41
69393;SHT31;56582;44.624;20.378;2022-09-03T06:56:10;19.96;77.13
69393;SHT31;56582;44.624;20.378;2022-09-03T06:58:47;20.09;79.45
69393;SHT31;56582;44.624;20.378;2022-09-03T07:01:18;19.96;79.23
69393;SHT31;56582;44.624;20.378;2022-09-03T07:03:45;20.85;77.02
69393;SHT31;56582;44.624;20.378;2022-09-03T07:06:15;21.36;74.84
69393;SHT31;56582;44.624;20.378;2022-09-03T07:08:42;20.72;74.56
69393;SHT31;56582;44.624;20.378;2022-09-03T07:11:18;21.47;73.11
69393;SHT31;56582;44.624;20.378;2022-09-03T07:13:46;21.95;71.55
69393;SHT31;56582;44.624;20.378;2022-09-03T07:16:17;22.16;70.55
69393;SHT31;56582;44.624;20.378;2022-09-03T07:18:43;21.99;71.03
69393;SHT31;56582;44.624;20.378;2022-09-03T07:21:14;22.08;70.72
69393;SHT31;56582;44.624;20.378;2022-09-03T07:23:40;21.85;66.60
69393;SHT31;56582;44.624;20.378;2022-09-03T07:26:09;21.84;69.51
69393;SHT31;56582;44.624;20.378;2022-09-03T07:28:36;21.88;69.70
69393;SHT31;56582;44.624;20.378;2022-09-03T07:31:10;22.04;70.54
69393;SHT31;56582;44.624;20.378;2022-09-03T07:33:37;22.35;69.14
69393;SHT31;56582;44.624;20.378;2022-09-03T07:36:07;22.81;67.58
69393;SHT31;56582;44.624;20.378;2022-09-03T07:38:34;23.04;67.30
69393;SHT31;56582;44.624;20.378;2022-09-03T07:41:02;22.40;61.97
69393;SHT31;56582;44.624;20.378;2022-09-03T07:43:33;21.39;65.50
69393;SHT31;56582;44.624;20.378;2022-09-03T07:45:59;21.92;68.54
69393;SHT31;56582;44.624;20.378;2022-09-03T07:48:25;22.49;68.51
69393;SHT31;56582;44.624;20.378;2022-09-03T07:50:51;22.70;67.73
69393;SHT31;56582;44.624;20.378;2022-09-03T07:53:18;22.91;67.80
69393;SHT31;56582;44.624;20.378;2022-09-03T07:55:46;23.00;65.76
69393;SHT31;56582;44.624;20.378;2022-09-03T07:58:15;21.94;70.47
69393;SHT31;56582;44.624;20.378;2022-09-03T08:00:42;21.36;71.35
69393;SHT31;56582;44.624;20.378;2022-09-03T08:03:08;20.64;71.76
69393;SHT31;56582;44.624;20.378;2022-09-03T08:05:35;20.64;72.55
69393;SHT31;56582;44.624;20.378;2022-09-03T08:08:04;20.45;73.49
69393;SHT31;56582;44.624;20.378;2022-09-03T08:10:34;20.56;71.19
69393;SHT31;56582;44.624;20.378;2022-09-03T08:13:00;21.07;69.18
69393;SHT31;56582;44.624;20.378;2022-09-03T08:15:26;21.22;71.98
69393;SHT31;56582;44.624;20.378;2022-09-03T08:17:51;20.79;69.45
69393;SHT31;56582;44.624;20.378;2022-09-03T08:20:17;20.86;72.71
69393;SHT31;56582;44.624;20.378;2022-09-03T08:22:43;21.07;72.60
69393;SHT31;56582;44.624;20.378;2022-09-03T08:25:09;20.89;71.97
69393;SHT31;56582;44.624;20.378;2022-09-03T08:27:34;21.26;71.43
69393;SHT31;56582;44.624;20.378;2022-09-03T08:30:00;21.47;71.38
69393;SHT31;56582;44.624;20.378;2022-09-03T08:32:25;21.73;70.15
69393;SHT31;56582;44.624;20.378;2022-09-03T08:34:51;21.87;66.67
69393;SHT31;56582;44.624;20.378;2022-09-03T08:37:17;21.47;69.25
69393;SHT31;56582;44.624;20.378;2022-09-03T08:39:43;22.06;68.76
69393;SHT31;56582;44.624;20.378;2022-09-03T08:42:16;22.20;68.80
69393;SHT31;56582;44.624;20.378;2022-09-03T08:44:48;22.28;68.50
69393;SHT31;56582;44.624;20.378;2022-09-03T08:52:46;22.95;64.68
69393;SHT31;56582;44.624;20.378;2022-09-03T08:55:34;22.83;67.57
69393;SHT31;56582;44.624;20.378;2022-09-03T08:58:02;22.57;67.04
69393;SHT31;56582;44.624;20.378;2022-09-03T09:08:51;22.10;69.76
69393;SHT31;56582;44.624;20.378;2022-09-03T09:14:02;21.64;67.39
69393;SHT31;56582;44.624;20.378;2022-09-03T09:16:49;21.62;70.41
69393;SHT31;56582;44.624;20.378;2022-09-03T09:19:32;21.51;68.96
69393;SHT31;56582;44.624;20.378;2022-09-03T09:22:06;21.62;67.45
69393;SHT31;56582;44.624;20.378;2022-09-03T09:24:45;21.75;67.95
69393;SHT31;56582;44.624;20.378;2022-09-03T09:27:14;21.77;67.98
69393;SHT31;56582;44.624;20.378;2022-09-03T09:29:45;21.75;66.65
69393;SHT31;56582;44.624;20.378;2022-09-03T09:32:14;21.34;68.09
69393;SHT31;56582;44.624;20.378;2022-09-03T09:34:41;21.30;69.00
69393;SHT31;56582;44.624;20.378;2022-09-03T09:37:10;21.61;68.58
69393;SHT31;56582;44.624;20.378;2022-09-03T09:39:37;21.44;68.44
69393;SHT31;56582;44.624;20.378;2022-09-03T09:42:09;21.98;67.19
69393;SHT31;56582;44.624;20.378;2022-09-03T09:44:37;22.39;65.82
69393;SHT31;56582;44.624;20.378;2022-09-03T09:47:15;22.90;65.48
69393;SHT31;56582;44.624;20.378;2022-09-03T09:52:12;23.26;66.77
69393;SHT31;56582;44.624;20.378;2022-09-03T09:54:40;22.73;65.43
69393;SHT31;56582;44.624;20.378;2022-09-03T09:57:16;22.50;65.36
69393;SHT31;56582;44.624;20.378;2022-09-03T09:59:42;22.28;66.28
69393;SHT31;56582;44.624;20.378;2022-09-03T10:02:13;22.18;66.42
69393;SHT31;56582;44.624;20.378;2022-09-03T10:04:40;21.41;67.00
69393;SHT31;56582;44.624;20.378;2022-09-03T10:07:28;22.08;69.18
69393;SHT31;56582;44.624;20.378;2022-09-03T10:12:41;22.28;67.99
69393;SHT31;56582;44.624;20.378;2022-09-03T10:20:50;22.20;66.01
69393;SHT31;56582;44.624;20.378;2022-09-03T10:23:23;22.49;68.40
69393;SHT31;56582;44.624;20.378;2022-09-03T10:28:25;22.37;68.47
69393;SHT31;56582;44.624;20.378;2022-09-03T10:34:11;22.05;66.63
69393;SHT31;56582;44.624;20.378;2022-09-03T10:50:26;23.66;64.13
69393;SHT31;56582;44.624;20.378;2022-09-03T11:07:06;22.26;68.00
69393;SHT31;56582;44.624;20.378;2022-09-03T11:09:40;22.42;67.07
69393;SHT31;56582;44.624;20.378;2022-09-03T11:14:50;23.15;64.79
69393;SHT31;56582;44.624;20.378;2022-09-03T11:17:24;22.53;64.65
69393;SHT31;56582;44.624;20.378;2022-09-03T11:22:19;22.77;65.66
69393;SHT31;56582;44.624;20.378;2022-09-03T11:24:55;22.64;64.29
69393;SHT31;56582;44.624;20.378;2022-09-03T11:30:08;22.06;67.12
69393;SHT31;56582;44.624;20.378;2022-09-03T11:34:59;21.99;66.62
69393;SHT31;56582;44.624;20.378;2022-09-03T11:37:29;21.71;68.00
69393;SHT31;56582;44.624;20.378;2022-09-03T11:40:02;21.55;67.98
69393;SHT31;56582;44.624;20.378;2022-09-03T11:42:36;21.74;66.66
69393;SHT31;56582;44.624;20.378;2022-09-03T11:47:52;22.05;66.81
69393;SHT31;56582;44.624;20.378;2022-09-03T11:52:52;22.36;66.72
69393;SHT31;56582;44.624;20.378;2022-09-03T11:55:27;22.30;68.20
69393;SHT31;56582;44.624;20.378;2022-09-03T11:58:09;22.02;66.80
69393;SHT31;56582;44.624;20.378;2022-09-03T12:00:35;22.70;66.89
69393;SHT31;56582;44.624;20.378;2022-09-03T12:03:02;22.70;65.53
69393;SHT31;56582;44.624;20.378;2022-09-03T12:13:51;22.88;64.80
69393;SHT31;56582;44.624;20.378;2022-09-03T12:18:50;22.78;66.93
69393;SHT31;56582;44.624;20.378;2022-09-03T12:21:19;23.00;65.91
69393;SHT31;56582;44.624;20.378;2022-09-03T12:23:52;23.14;66.02
69393;SHT31;56582;44.624;20.378;2022-09-03T12:26:19;23.25;66.26
69393;SHT31;56582;44.624;20.378;2022-09-03T12:28:53;23.53;64.98
69393;SHT31;56582;44.624;20.378;2022-09-03T12:31:20;23.55;64.90
69393;SHT31;56582;44.624;20.378;2022-09-03T12:33:53;23.18;64.04
69393;SHT31;56582;44.624;20.378;2022-09-03T12:36:22;23.24;65.74
69393;SHT31;56582;44.624;20.378;2022-09-03T12:38:48;23.53;64.93
69393;SHT31;56582;44.624;20.378;2022-09-03T12:41:28;23.52;64.40
69393;SHT31;56582;44.624;20.378;2022-09-03T12:43:59;23.37;64.10
69393;SHT31;56582;44.624;20.378;2022-09-03T12:46:30;23.61;66.10
69393;SHT31;56582;44.624;20.378;2022-09-03T12:48:58;23.45;66.23
69393;SHT31;56582;44.624;20.378;2022-09-03T12:51:33;23.38;65.08
69393;SHT31;56582;44.624;20.378;2022-09-03T12:54:01;23.46;66.01
69393;SHT31;56582;44.624;20.378;2022-09-03T12:56:27;23.61;66.58
69393;SHT31;56582;44.624;20.378;2022-09-03T12:59:03;23.63;65.49
69393;SHT31;56582;44.624;20.378;2022-09-03T13:01:42;23.86;67.46
69393;SHT31;56582;44.624;20.378;2022-09-03T13:04:13;24.20;66.29
69393;SHT31;56582;44.624;20.378;2022-09-03T13:06:59;24.17;67.03
69393;SHT31;56582;44.624;20.378;2022-09-03T13:09:28;24.35;64.84
69393;SHT31;56582;44.624;20.378;2022-09-03T13:11:56;24.25;61.97
69393;SHT31;56582;44.624;20.378;2022-09-03T13:14:25;24.01;63.36
69393;SHT31;56582;44.624;20.378;2022-09-03T13:19:57;23.84;63.44
69393;SHT31;56582;44.624;20.378;2022-09-03T13:31:33;23.43;62.87
69393;SHT31;56582;44.624;20.378;2022-09-03T13:36:40;23.79;64.51
69393;SHT31;56582;44.624;20.378;2022-09-03T13:39:29;23.70;61.16
69393;SHT31;56582;44.624;20.378;2022-09-03T13:42:11;23.83;62.83
69393;SHT31;56582;44.624;20.378;2022-09-03T13:44:45;24.31;62.68
69393;SHT31;56582;44.624;20.378;2022-09-03T13:50:18;24.44;61.34
69393;SHT31;56582;44.624;20.378;2022-09-03T13:52:55;24.09;61.96
69393;SHT31;56582;44.624;20.378;2022-09-03T13:55:32;24.45;64.68
69393;SHT31;56582;44.624;20.378;2022-09-03T14:09:19;24.00;61.67
69393;SHT31;56582;44.624;20.378;2022-09-03T14:11:57;24.07;63.71
69393;SHT31;56582;44.624;20.378;2022-09-03T14:14:47;24.18;63.69
69393;SHT31;56582;44.624;20.378;2022-09-03T14:17:49;24.38;64.26
69393;SHT31;56582;44.624;20.378;2022-09-03T14:20:23;24.35;63.33
69393;SHT31;56582;44.624;20.378;2022-09-03T14:25:59;24.32;63.57
69393;SHT31;56582;44.624;20.378;2022-09-03T14:28:39;24.28;65.55
69393;SHT31;56582;44.624;20.378;2022-09-03T14:31:14;24.06;63.51
69393;SHT31;56582;44.624;20.378;2022-09-03T14:33:52;24.25;63.73
69393;SHT31;56582;44.624;20.378;2022-09-03T14:41:57;23.66;64.78
69393;SHT31;56582;44.624;20.378;2022-09-03T15:03:41;25.02;62.87
69393;SHT31;56582;44.624;20.378;2022-09-03T15:06:24;25.20;62.73
69393;SHT31;56582;44.624;20.378;2022-09-03T15:12:00;25.12;62.39
69393;SHT31;56582;44.624;20.378;2022-09-03T15:14:54;25.16;62.69
69393;SHT31;56582;44.624;20.378;2022-09-03T15:22:41;24.89;63.99
69393;SHT31;56582;44.624;20.378;2022-09-03T15:30:50;24.83;64.94
69393;SHT31;56582;44.624;20.378;2022-09-03T15:36:38;24.92;64.34
69393;SHT31;56582;44.624;20.378;2022-09-03T15:41:52;24.69;64.43
69393;SHT31;56582;44.624;20.378;2022-09-03T15:44:22;24.64;64.90
69393;SHT31;56582;44.624;20.378;2022-09-03T15:50:33;24.76;63.96
69393;SHT31;56582;44.624;20.378;2022-09-03T15:55:44;24.89;64.57
69393;SHT31;56582;44.624;20.378;2022-09-03T15:58:20;24.67;65.51
69393;SHT31;56582;44.624;20.378;2022-09-03T16:01:02;24.65;64.95
69393;SHT31;56582;44.624;20.378;2022-09-03T16:09:07;24.86;64.45
69393;SHT31;56582;44.624;20.378;2022-09-03T16:14:42;24.86;64.11
69393;SHT31;56582;44.624;20.378;2022-09-03T16:17:25;24.82;63.85
69393;SHT31;56582;44.624;20.378;2022-09-03T16:22:31;24.69;63.96
69393;SHT31;56582;44.624;20.378;2022-09-03T16:27:59;24.61;64.57
69393;SHT31;56582;44.624;20.378;2022-09-03T17:00:09;24.20;65.20
69393;SHT31;56582;44.624;20.378;2022-09-03T17:03:01;24.14;65.05
69393;SHT31;56582;44.624;20.378;2022-09-03T17:11:44;24.11;65.32
69393;SHT31;56582;44.624;20.378;2022-09-03T17:25:38;23.77;65.99
69393;SHT31;56582;44.624;20.378;2022-09-03T17:36:36;22.87;67.48
69393;SHT31;56582;44.624;20.378;2022-09-03T17:39:27;22.08;69.29
69393;SHT31;56582;44.624;20.378;2022-09-03T17:42:14;21.43;71.64
69393;SHT31;56582;44.624;20.378;2022-09-03T17:45:12;21.02;72.72
69393;SHT31;56582;44.624;20.378;2022-09-03T17:50:25;20.69;73.68
69393;SHT31;56582;44.624;20.378;2022-09-03T17:52:56;20.53;73.53
69393;SHT31;56582;44.624;20.378;2022-09-03T17:55:40;20.35;74.55
69393;SHT31;56582;44.624;20.378;2022-09-03T17:58:15;20.31;74.64
69393;SHT31;56582;44.624;20.378;2022-09-03T18:04:00;20.16;75.03
69393;SHT31;56582;44.624;20.378;2022-09-03T18:06:53;20.11;75.02
69393;SHT31;56582;44.624;20.378;2022-09-03T18:09:29;20.24;74.54
69393;SHT31;56582;44.624;20.378;2022-09-03T18:18:03;19.82;75.59
69393;SHT31;56582;44.624;20.378;2022-09-03T18:20:36;19.72;76.33
69393;SHT31;56582;44.624;20.378;2022-09-03T18:23:25;19.72;76.15
69393;SHT31;56582;44.624;20.378;2022-09-03T18:26:20;19.62;76.57
69393;SHT31;56582;44.624;20.378;2022-09-03T18:31:57;19.70;76.46
69393;SHT31;56582;44.624;20.378;2022-09-03T18:34:42;19.65;76.53
69393;SHT31;56582;44.624;20.378;2022-09-03T18:37:26;19.61;76.55
69393;SHT31;56582;44.624;20.378;2022-09-03T18:40:20;19.61;76.55
69393;SHT31;56582;44.624;20.378;2022-09-03T18:46:30;19.24;77.65
69393;SHT31;56582;44.624;20.378;2022-09-03T18:49:38;19.11;77.83
69393;SHT31;56582;44.624;20.378;2022-09-03T18:59:01;19.18;77.89
69393;SHT31;56582;44.624;20.378;2022-09-03T19:01:46;19.19;77.75
69393;SHT31;56582;44.624;20.378;2022-09-03T19:04:46;19.16;77.53
69393;SHT31;56582;44.624;20.378;2022-09-03T19:07:59;19.11;77.74
69393;SHT31;56582;44.624;20.378;2022-09-03T19:10:53;19.04;78.35
69393;SHT31;56582;44.624;20.378;2022-09-03T19:13:39;18.98;78.74
69393;SHT31;56582;44.624;20.378;2022-09-03T19:22:27;18.73;79.79
69393;SHT31;56582;44.624;20.378;2022-09-03T19:25:14;18.80;79.70
69393;SHT31;56582;44.624;20.378;2022-09-03T19:37:23;18.66;80.06
69393;SHT31;56582;44.624;20.378;2022-09-03T19:46:56;18.56;80.22
69393;SHT31;56582;44.624;20.378;2022-09-03T19:52:52;18.61;80.14
69393;SHT31;56582;44.624;20.378;2022-09-03T19:56:09;18.46;80.40
69393;SHT31;56582;44.624;20.378;2022-09-03T19:58:55;18.56;80.40
69393;SHT31;56582;44.624;20.378;2022-09-03T20:01:41;18.37;81.19
69393;SHT31;56582;44.624;20.378;2022-09-03T20:04:33;18.26;81.24
69393;SHT31;56582;44.624;20.378;2022-09-03T20:07:19;18.30;81.28
69393;SHT31;56582;44.624;20.378;2022-09-03T20:10:10;18.30;81.43
69393;SHT31;56582;44.624;20.378;2022-09-03T20:13:07;18.09;81.84
69393;SHT31;56582;44.624;20.378;2022-09-03T20:19:09;18.18;81.86
69393;SHT31;56582;44.624;20.378;2022-09-03T20:27:32;17.97;82.61
69393;SHT31;56582;44.624;20.378;2022-09-03T20:38:41;18.01;82.77
69393;SHT31;56582;44.624;20.378;2022-09-03T20:53:06;17.92;83.41
69393;SHT31;56582;44.624;20.378;2022-09-03T20:55:43;17.98;83.42
69393;SHT31;56582;44.624;20.378;2022-09-03T21:01:03;17.97;83.45
69393;SHT31;56582;44.624;20.378;2022-09-03T21:17:17;17.91;83.37
69393;SHT31;56582;44.624;20.378;2022-09-03T21:25:13;17.92;83.41
69393;SHT31;56582;44.624;20.378;2022-09-03T21:27:46;17.91;83.24
69393;SHT31;56582;44.624;20.378;2022-09-03T21:30:17;17.85;83.55
69393;SHT31;56582;44.624;20.378;2022-09-03T21:33:19;17.84;83.61
69393;SHT31;56582;44.624;20.378;2022-09-03T21:35:49;17.87;83.71
69393;SHT31;56582;44.624;20.378;2022-09-03T21:38:18;17.92;83.63
69393;SHT31;56582;44.624;20.378;2022-09-03T21:44:15;17.94;83.63
69393;SHT31;56582;44.624;20.378;2022-09-03T21:47:00;17.94;83.56
69393;SHT31;56582;44.624;20.378;2022-09-03T21:49:50;17.97;83.62
69393;SHT31;56582;44.624;20.378;2022-09-03T21:52:23;17.91;84.05
69393;SHT31;56582;44.624;20.378;2022-09-03T21:54:51;17.95;84.03
69393;SHT31;56582;44.624;20.378;2022-09-03T21:57:34;17.85;84.17
69393;SHT31;56582;44.624;20.378;2022-09-03T22:00:10;17.87;84.39
69393;SHT31;56582;44.624;20.378;2022-09-03T22:02:38;17.77;84.40
69393;SHT31;56582;44.624;20.378;2022-09-03T22:05:05;17.82;84.24
69393;SHT31;56582;44.624;20.378;2022-09-03T22:10:05;17.81;84.26
69393;SHT31;56582;44.624;20.378;2022-09-03T22:12:50;17.81;84.38
69393;SHT31;56582;44.624;20.378;2022-09-03T22:15:20;17.75;84.43
69393;SHT31;56582;44.624;20.378;2022-09-03T22:21:13;17.74;84.39
69393;SHT31;56582;44.624;20.378;2022-09-03T22:29:26;17.68;84.99
69393;SHT31;56582;44.624;20.378;2022-09-03T22:34:34;17.55;85.27
69393;SHT31;56582;44.624;20.378;2022-09-03T22:37:04;17.53;85.67
69393;SHT31;56582;44.624;20.378;2022-09-03T22:39:38;17.49;85.80
69393;SHT31;56582;44.624;20.378;2022-09-03T22:50:55;17.47;85.51